createdAt,value
2022-12-25T00:02:08.172Z,14.66
2022-12-25T00:07:09.834Z,15.00
2022-12-25T00:12:11.555Z,13.62
2022-12-25T00:17:13.433Z,14.61
2022-12-25T00:22:15.154Z,15.12
2022-12-25T00:27:17.256Z,15.93
2022-12-25T00:32:18.938Z,15.37
2022-12-25T00:37:20.707Z,16.03
2022-12-25T00:42:23.871Z,15.60
2022-12-25T00:47:25.663Z,15.91
2022-12-25T00:52:27.375Z,14.64
2022-12-25T00:57:29.112Z,15.10
2022-12-25T01:02:30.974Z,15.96
2022-12-25T01:07:33.005Z,15.59
2022-12-25T01:12:37.549Z,16.83
2022-12-25T01:17:39.507Z,17.46
2022-12-25T01:22:42.019Z,16.99
2022-12-25T01:27:43.726Z,16.98
2022-12-25T01:32:45.558Z,14.27
2022-12-25T01:37:47.194Z,15.68
2022-12-25T01:42:48.956Z,13.55
2022-12-25T01:47:50.958Z,13.50
2022-12-25T01:52:54.068Z,13.73
2022-12-25T01:57:56.343Z,15.48
2022-12-25T02:02:59.215Z,16.69
2022-12-25T02:08:12.735Z,16.57
2022-12-25T02:13:18.475Z,15.45
2022-12-25T02:18:50.413Z,14.42
2022-12-25T02:24:06.570Z,15.45
2022-12-25T02:30:00.797Z,13.33
2022-12-25T02:35:28.478Z,13.54
2022-12-25T02:40:57.938Z,15.02
2022-12-25T02:46:22.615Z,15.40
2022-12-25T02:51:46.348Z,15.63
2022-12-25T02:57:09.075Z,14.67
2022-12-25T03:02:30.477Z,16.45
2022-12-25T03:07:34.612Z,16.21
2022-12-25T03:12:51.781Z,16.78
2022-12-25T03:17:55.633Z,15.52
2022-12-25T03:23:16.211Z,16.21
2022-12-25T03:28:17.974Z,15.93
2022-12-25T03:34:11.467Z,16.41
2022-12-25T03:39:51.372Z,16.69
2022-12-25T03:45:26.729Z,16.37
2022-12-25T03:51:12.969Z,16.79
2022-12-25T03:56:37.075Z,15.88
2022-12-25T04:01:57.498Z,16.23
2022-12-25T04:07:18.082Z,15.93
2022-12-25T04:12:38.255Z,13.87
2022-12-25T04:17:58.428Z,14.42
2022-12-25T04:23:18.643Z,15.57
2022-12-25T04:28:38.873Z,15.91
2022-12-25T04:33:59.885Z,15.97
2022-12-25T04:39:01.696Z,15.96
2022-12-25T04:44:03.496Z,16.10
2022-12-25T04:49:05.209Z,17.03
2022-12-25T04:54:06.850Z,15.87
2022-12-25T04:59:08.585Z,15.31
2022-12-25T05:04:10.317Z,15.25
2022-12-25T05:09:12.197Z,14.92
2022-12-25T05:14:13.870Z,14.44
2022-12-25T05:19:15.627Z,14.17
2022-12-25T05:24:17.242Z,14.56
2022-12-25T05:29:19.024Z,14.36
2022-12-25T05:34:20.827Z,14.20
2022-12-25T05:39:22.757Z,14.21
2022-12-25T05:44:24.498Z,14.33
2022-12-25T05:49:26.187Z,14.63
2022-12-25T05:54:27.972Z,15.08
2022-12-25T05:59:31.617Z,15.56
2022-12-25T06:04:33.305Z,15.49
2022-12-25T06:09:35.023Z,16.35
2022-12-25T06:14:37.029Z,16.77
2022-12-25T06:19:38.771Z,15.36
2022-12-25T06:24:40.847Z,15.28
2022-12-25T06:29:42.675Z,13.89
2022-12-25T06:34:44.557Z,14.86
2022-12-25T06:39:47.774Z,15.89
2022-12-25T06:44:51.137Z,16.01
2022-12-25T06:49:52.793Z,16.47
2022-12-25T06:54:54.525Z,14.99
2022-12-25T06:59:56.188Z,15.21
2022-12-25T07:04:58.777Z,14.70
2022-12-25T07:10:00.401Z,16.25
2022-12-25T07:15:02.142Z,15.73
2022-12-25T07:20:04.155Z,15.67
2022-12-25T07:25:06.784Z,14.58
2022-12-25T07:30:09.126Z,14.98
2022-12-25T07:35:10.849Z,14.05
2022-12-25T07:40:12.921Z,13.36
2022-12-25T07:45:14.829Z,13.67
2022-12-25T07:50:17.017Z,15.01
2022-12-25T07:55:18.843Z,15.27
2022-12-25T08:00:20.790Z,15.27
2022-12-25T08:05:22.491Z,17.08
2022-12-25T08:10:24.238Z,16.72
2022-12-25T08:15:26.032Z,17.18
2022-12-25T08:20:27.750Z,16.41
2022-12-25T08:25:29.669Z,16.68
2022-12-25T08:30:31.569Z,15.05
2022-12-25T08:35:34.221Z,14.42
2022-12-25T08:40:35.968Z,16.13
2022-12-25T08:45:37.640Z,17.30
2022-12-25T08:50:39.353Z,17.73
2022-12-25T08:55:41.275Z,17.73
2022-12-25T09:00:43.137Z,16.57
2022-12-25T09:05:44.882Z,17.63
2022-12-25T09:10:46.583Z,14.55
2022-12-25T09:15:48.333Z,15.35
2022-12-25T09:21:04.789Z,17.76
2022-12-25T09:26:08.702Z,17.53
2022-12-25T09:31:10.511Z,17.84
2022-12-25T09:36:12.369Z,18.83
2022-12-25T09:41:38.425Z,17.43
2022-12-25T09:46:53.191Z,17.34
2022-12-25T09:52:01.636Z,16.35
2022-12-25T09:57:04.023Z,16.20
2022-12-25T10:02:21.161Z,17.99
2022-12-25T10:07:51.626Z,16.49
2022-12-25T10:13:05.424Z,15.55
2022-12-25T10:18:25.528Z,15.95
2022-12-25T10:23:35.495Z,16.59
2022-12-25T10:28:51.277Z,15.96
2022-12-25T10:33:54.257Z,17.44
2022-12-25T10:38:57.271Z,16.49
2022-12-25T10:43:59.197Z,16.58
2022-12-25T10:49:02.967Z,15.77
2022-12-25T10:54:26.274Z,16.31
2022-12-25T10:59:31.159Z,16.01
2022-12-25T11:06:24.509Z,11.28
2022-12-25T11:11:28.048Z,11.36
2022-12-25T11:16:40.280Z,11.17
2022-12-25T11:21:51.879Z,11.80
2022-12-25T11:27:04.634Z,11.72
2022-12-25T11:32:21.103Z,11.76
2022-12-25T11:37:44.421Z,11.28
2022-12-25T11:42:51.671Z,12.42
2022-12-25T11:48:02.356Z,12.55
2022-12-25T11:53:25.191Z,12.87
2022-12-25T11:58:32.566Z,13.30
2022-12-25T12:03:41.502Z,13.27
2022-12-25T12:08:44.076Z,12.76
2022-12-25T12:14:18.623Z,14.62
2022-12-25T12:19:29.298Z,13.14
2022-12-25T12:24:39.350Z,14.42
2022-12-25T12:29:44.314Z,14.53
2022-12-25T12:34:50.564Z,14.95
2022-12-25T12:39:54.526Z,14.27
2022-12-25T12:44:58.395Z,14.52
2022-12-25T12:50:01.490Z,14.38
2022-12-25T12:55:07.395Z,14.75
2022-12-25T13:00:18.890Z,14.32
2022-12-25T13:05:32.234Z,14.00
2022-12-25T13:10:41.406Z,14.08
2022-12-25T13:15:47.616Z,14.46
2022-12-25T13:20:56.631Z,14.46
2022-12-25T13:26:01.172Z,14.09
2022-12-25T13:31:05.379Z,14.70
2022-12-25T13:36:12.591Z,14.47
2022-12-25T13:41:41.753Z,15.15
2022-12-25T13:46:43.601Z,14.58
2022-12-25T13:51:45.793Z,12.39
2022-12-25T13:56:56.558Z,13.97
2022-12-25T14:01:59.939Z,13.27
2022-12-25T14:07:10.709Z,13.22
2022-12-25T14:12:18.939Z,12.97
2022-12-25T14:17:22.377Z,13.70
2022-12-25T14:22:25.230Z,14.67
2022-12-25T14:27:30.483Z,14.56
2022-12-25T14:32:40.822Z,16.01
2022-12-25T14:37:42.604Z,16.16
2022-12-25T14:42:54.689Z,15.35
2022-12-25T14:47:59.273Z,16.43
2022-12-25T14:53:01.231Z,15.63
2022-12-25T14:58:05.749Z,15.88
2022-12-25T15:03:21.357Z,15.93
2022-12-25T15:08:25.094Z,15.80
2022-12-25T15:13:27.888Z,16.86
2022-12-25T15:18:38.341Z,16.59
2022-12-25T15:23:39.984Z,16.19
2022-12-25T15:28:42.172Z,15.79
2022-12-25T15:33:44.352Z,16.00
2022-12-25T15:38:46.162Z,15.63
2022-12-25T15:43:47.849Z,14.97
2022-12-25T15:48:49.404Z,14.89
2022-12-25T15:53:51.120Z,15.39
2022-12-25T15:58:52.780Z,16.38
2022-12-25T16:03:54.475Z,15.62
2022-12-25T16:08:56.131Z,16.02
2022-12-25T16:13:57.857Z,16.16
2022-12-25T16:18:59.564Z,16.19
2022-12-25T16:24:01.143Z,15.82
2022-12-25T16:29:07.307Z,13.33
2022-12-25T16:34:10.064Z,13.17
2022-12-25T16:39:12.022Z,12.95
2022-12-25T16:44:14.774Z,14.66
2022-12-25T16:49:16.429Z,14.74
2022-12-25T16:54:18.177Z,14.59
2022-12-25T16:59:19.809Z,14.27
2022-12-25T17:04:21.518Z,14.02
2022-12-25T17:09:23.488Z,13.37
2022-12-25T17:14:25.359Z,12.06
2022-12-25T17:19:27.514Z,12.21
2022-12-25T17:24:29.924Z,12.31
2022-12-25T17:29:32.030Z,14.24
2022-12-25T17:34:33.790Z,13.23
2022-12-25T17:39:35.386Z,12.46
2022-12-25T17:44:37.003Z,13.35
2022-12-25T17:49:38.581Z,12.53
2022-12-25T17:54:40.816Z,12.90
2022-12-25T17:59:42.444Z,14.23
2022-12-25T18:04:44.173Z,13.16
2022-12-25T18:09:45.842Z,13.71
2022-12-25T18:14:47.448Z,14.19
2022-12-25T18:19:50.754Z,12.88
2022-12-25T18:24:52.683Z,13.41
2022-12-25T18:29:54.278Z,13.20
2022-12-25T18:34:55.987Z,13.71
2022-12-25T18:39:57.602Z,12.46
2022-12-25T18:44:59.407Z,13.00
2022-12-25T18:50:01.213Z,13.71
2022-12-25T18:55:02.900Z,14.04
2022-12-25T19:00:05.031Z,12.94
2022-12-25T19:05:07.057Z,13.10
2022-12-25T19:10:10.318Z,13.28
2022-12-25T19:15:12.215Z,12.93
2022-12-25T19:20:13.831Z,13.79
2022-12-25T19:25:15.557Z,13.90
2022-12-25T19:30:18.289Z,12.86
2022-12-25T19:35:19.865Z,12.64
2022-12-25T19:40:22.635Z,13.00
2022-12-25T19:45:24.489Z,12.27
2022-12-25T19:50:28.567Z,12.00
2022-12-25T19:55:32.114Z,12.67
2022-12-25T20:00:33.838Z,13.04
2022-12-25T20:05:35.715Z,12.18
2022-12-25T20:10:43.144Z,12.82
2022-12-25T20:15:44.806Z,12.32
2022-12-25T20:20:46.420Z,13.22
2022-12-25T20:25:48.002Z,12.90
2022-12-25T20:30:49.667Z,13.08
2022-12-25T20:35:51.712Z,12.82
2022-12-25T20:41:27.773Z,13.29
2022-12-25T20:46:30.637Z,12.95
2022-12-25T20:51:32.369Z,13.48
2022-12-25T20:56:34.625Z,14.08
2022-12-25T21:01:36.332Z,14.34
2022-12-25T21:06:38.013Z,14.40
2022-12-25T21:11:39.611Z,12.76
2022-12-25T21:16:41.432Z,13.56
2022-12-25T21:21:43.755Z,13.22
2022-12-25T21:26:48.189Z,13.36
2022-12-25T21:32:08.707Z,13.40
2022-12-25T21:37:10.264Z,13.83
2022-12-25T21:42:11.870Z,14.10
2022-12-25T21:47:13.559Z,14.08
2022-12-25T21:52:15.227Z,13.23
2022-12-25T21:57:16.922Z,13.94
2022-12-25T22:02:18.793Z,13.55
2022-12-25T22:07:20.714Z,13.70
2022-12-25T22:12:40.789Z,13.70
2022-12-25T22:18:02.093Z,13.79
2022-12-25T22:23:04.404Z,13.78
2022-12-25T22:28:06.063Z,14.01
2022-12-25T22:33:07.777Z,13.15
2022-12-25T22:38:09.340Z,13.62
2022-12-25T22:43:10.980Z,13.42
2022-12-25T22:48:12.575Z,13.46
2022-12-25T22:53:14.157Z,13.52
2022-12-25T22:58:16.153Z,13.42
2022-12-25T23:03:17.888Z,12.69
2022-12-25T23:08:19.632Z,12.83
2022-12-25T23:13:39.761Z,12.62
2022-12-25T23:19:00.019Z,12.81
2022-12-25T23:24:20.706Z,13.33
2022-12-25T23:29:37.720Z,13.70
2022-12-25T23:34:41.640Z,13.15
2022-12-25T23:39:43.568Z,13.74
2022-12-25T23:44:45.193Z,13.15
2022-12-25T23:49:46.913Z,13.23
2022-12-25T23:54:48.542Z,14.11
2022-12-25T23:59:50.173Z,13.20
